sensor_id;sensor_type;location;lat;lon;timestamp;pressure;altitude;pressure_sealevel;temperature
29701;BMP280;57917;51.380;-0.176;2023-02-12T00:05:39;103470.91;;;10.59
29701;BMP280;57917;51.380;-0.176;2023-02-12T00:11:28;103466.66;;;10.58
29701;BMP280;57917;51.380;-0.176;2023-02-12T00:17:16;103466.84;;;10.57
29701;BMP280;57917;51.380;-0.176;2023-02-12T00:23:05;103464.41;;;10.62
29701;BMP280;57917;51.380;-0.176;2023-02-12T00:28:53;103466.84;;;10.63
29701;BMP280;57917;51.380;-0.176;2023-02-12T00:34:41;103474.19;;;10.61
29701;BMP280;57917;51.380;-0.176;2023-02-12T00:40:27;103480.94;;;10.57
29701;BMP280;57917;51.380;-0.176;2023-02-12T00:46:17;103461.97;;;10.54
29701;BMP280;57917;51.380;-0.176;2023-02-12T00:52:08;103473.56;;;10.46
29701;BMP280;57917;51.380;-0.176;2023-02-12T00:57:59;103468.50;;;10.58
29701;BMP280;57917;51.380;-0.176;2023-02-12T01:03:47;103448.91;;;10.52
29701;BMP280;57917;51.380;-0.176;2023-02-12T01:09:34;103458.28;;;10.55
29701;BMP280;57917;51.380;-0.176;2023-02-12T01:15:21;103454.41;;;10.44
29701;BMP280;57917;51.380;-0.176;2023-02-12T01:21:18;103462.78;;;10.35
29701;BMP280;57917;51.380;-0.176;2023-02-12T01:27:05;103457.91;;;10.32
29701;BMP280;57917;51.380;-0.176;2023-02-12T01:32:52;103469.69;;;10.36
29701;BMP280;57917;51.380;-0.176;2023-02-12T01:38:41;103464.44;;;10.16
29701;BMP280;57917;51.380;-0.176;2023-02-12T01:44:30;103465.22;;;10.30
29701;BMP280;57917;51.380;-0.176;2023-02-12T01:50:18;103467.25;;;10.28
29701;BMP280;57917;51.380;-0.176;2023-02-12T01:56:07;103463.19;;;10.32
29701;BMP280;57917;51.380;-0.176;2023-02-12T02:01:55;103467.69;;;10.31
29701;BMP280;57917;51.380;-0.176;2023-02-12T02:07:43;103456.91;;;10.33
29701;BMP280;57917;51.380;-0.176;2023-02-12T02:13:29;103465.63;;;10.27
29701;BMP280;57917;51.380;-0.176;2023-02-12T02:31:53;103456.66;;;10.34
29701;BMP280;57917;51.380;-0.176;2023-02-12T02:44:06;103463.19;;;10.19
29701;BMP280;57917;51.380;-0.176;2023-02-12T02:50:00;103460.44;;;9.66
29701;BMP280;57917;51.380;-0.176;2023-02-12T02:55:54;103456.63;;;9.82
29701;BMP280;57917;51.380;-0.176;2023-02-12T03:02:07;103441.97;;;9.92
29701;BMP280;57917;51.380;-0.176;2023-02-12T03:07:56;103438.31;;;9.93
29701;BMP280;57917;51.380;-0.176;2023-02-12T03:13:48;103438.53;;;9.98
29701;BMP280;57917;51.380;-0.176;2023-02-12T03:19:56;103427.16;;;10.24
29701;BMP280;57917;51.380;-0.176;2023-02-12T03:26:08;103424.50;;;10.24
29701;BMP280;57917;51.380;-0.176;2023-02-12T03:43:51;103424.44;;;9.78
29701;BMP280;57917;51.380;-0.176;2023-02-12T03:49:54;103429.56;;;10.13
29701;BMP280;57917;51.380;-0.176;2023-02-12T03:55:46;103432.66;;;10.16
29701;BMP280;57917;51.380;-0.176;2023-02-12T04:01:35;103423.88;;;10.16
29701;BMP280;57917;51.380;-0.176;2023-02-12T04:07:22;103430.19;;;10.28
29701;BMP280;57917;51.380;-0.176;2023-02-12T04:18:57;103426.91;;;9.93
29701;BMP280;57917;51.380;-0.176;2023-02-12T04:42:57;103425.91;;;10.27
29701;BMP280;57917;51.380;-0.176;2023-02-12T04:48:55;103428.19;;;10.17
29701;BMP280;57917;51.380;-0.176;2023-02-12T04:54:43;103428.56;;;10.07
29701;BMP280;57917;51.380;-0.176;2023-02-12T05:00:30;103436.09;;;10.04
29701;BMP280;57917;51.380;-0.176;2023-02-12T05:06:17;103436.91;;;9.98
29701;BMP280;57917;51.380;-0.176;2023-02-12T05:12:04;103438.13;;;10.02
29701;BMP280;57917;51.380;-0.176;2023-02-12T05:17:51;103435.25;;;9.96
29701;BMP280;57917;51.380;-0.176;2023-02-12T05:23:39;103438.94;;;9.89
29701;BMP280;57917;51.380;-0.176;2023-02-12T05:29:27;103433.25;;;9.98
29701;BMP280;57917;51.380;-0.176;2023-02-12T05:35:13;103428.97;;;9.98
29701;BMP280;57917;51.380;-0.176;2023-02-12T05:41:12;103427.75;;;10.13
29701;BMP280;57917;51.380;-0.176;2023-02-12T05:46:59;103425.28;;;9.98
29701;BMP280;57917;51.380;-0.176;2023-02-12T05:52:45;103425.50;;;10.04
29701;BMP280;57917;51.380;-0.176;2023-02-12T05:58:32;103422.84;;;9.97
29701;BMP280;57917;51.380;-0.176;2023-02-12T06:04:25;103426.31;;;9.98
29701;BMP280;57917;51.380;-0.176;2023-02-12T06:10:12;103430.19;;;9.95
29701;BMP280;57917;51.380;-0.176;2023-02-12T06:15:59;103440.19;;;10.00
29701;BMP280;57917;51.380;-0.176;2023-02-12T06:21:47;103427.13;;;9.98
29701;BMP280;57917;51.380;-0.176;2023-02-12T06:27:34;103429.34;;;10.01
29701;BMP280;57917;51.380;-0.176;2023-02-12T06:33:20;103429.75;;;9.98
29701;BMP280;57917;51.380;-0.176;2023-02-12T06:39:08;103432.25;;;10.00
29701;BMP280;57917;51.380;-0.176;2023-02-12T06:44:55;103433.66;;;9.95
29701;BMP280;57917;51.380;-0.176;2023-02-12T06:50:42;103421.63;;;9.86
29701;BMP280;57917;51.380;-0.176;2023-02-12T06:56:28;103426.69;;;9.88
29701;BMP280;57917;51.380;-0.176;2023-02-12T07:02:20;103426.50;;;9.83
29701;BMP280;57917;51.380;-0.176;2023-02-12T07:08:12;103430.16;;;9.82
29701;BMP280;57917;51.380;-0.176;2023-02-12T07:13:59;103428.94;;;9.84
29701;BMP280;57917;51.380;-0.176;2023-02-12T07:19:46;103437.88;;;9.83
29701;BMP280;57917;51.380;-0.176;2023-02-12T07:25:32;103441.16;;;9.79
29701;BMP280;57917;51.380;-0.176;2023-02-12T07:31:22;103459.28;;;9.88
29701;BMP280;57917;51.380;-0.176;2023-02-12T07:37:09;103462.31;;;9.79
29701;BMP280;57917;51.380;-0.176;2023-02-12T07:42:56;103461.50;;;9.78
29701;BMP280;57917;51.380;-0.176;2023-02-12T07:48:46;103470.25;;;9.85
29701;BMP280;57917;51.380;-0.176;2023-02-12T07:54:37;103469.97;;;9.54
29701;BMP280;57917;51.380;-0.176;2023-02-12T08:00:30;103484.84;;;9.55
29701;BMP280;57917;51.380;-0.176;2023-02-12T08:06:24;103478.13;;;9.59
29701;BMP280;57917;51.380;-0.176;2023-02-12T08:12:12;103477.91;;;9.61
29701;BMP280;57917;51.380;-0.176;2023-02-12T08:18:03;103487.84;;;9.52
29701;BMP280;57917;51.380;-0.176;2023-02-12T08:23:58;103480.72;;;9.46
29701;BMP280;57917;51.380;-0.176;2023-02-12T08:29:56;103480.44;;;9.28
29701;BMP280;57917;51.380;-0.176;2023-02-12T08:35:43;103487.97;;;9.31
29701;BMP280;57917;51.380;-0.176;2023-02-12T08:41:30;103493.25;;;9.31
29701;BMP280;57917;51.380;-0.176;2023-02-12T08:47:33;103499.31;;;9.25
29701;BMP280;57917;51.380;-0.176;2023-02-12T08:53:21;103503.94;;;9.10
29701;BMP280;57917;51.380;-0.176;2023-02-12T08:59:11;103506.00;;;8.87
29701;BMP280;57917;51.380;-0.176;2023-02-12T09:05:00;103516.88;;;9.05
29701;BMP280;57917;51.380;-0.176;2023-02-12T09:10:50;103506.94;;;9.41
29701;BMP280;57917;51.380;-0.176;2023-02-12T09:16:37;103517.97;;;9.51
29701;BMP280;57917;51.380;-0.176;2023-02-12T09:22:27;103520.25;;;9.67
29701;BMP280;57917;51.380;-0.176;2023-02-12T09:28:16;103509.94;;;9.85
29701;BMP280;57917;51.380;-0.176;2023-02-12T09:34:07;103508.25;;;9.58
29701;BMP280;57917;51.380;-0.176;2023-02-12T09:39:53;103508.25;;;9.65
29701;BMP280;57917;51.380;-0.176;2023-02-12T09:45:44;103506.59;;;9.57
29701;BMP280;57917;51.380;-0.176;2023-02-12T09:51:43;103512.38;;;9.74
29701;BMP280;57917;51.380;-0.176;2023-02-12T09:57:38;103513.84;;;9.42
29701;BMP280;57917;51.380;-0.176;2023-02-12T10:03:28;103511.41;;;9.41
29701;BMP280;57917;51.380;-0.176;2023-02-12T10:15:51;103507.91;;;9.74
29701;BMP280;57917;51.380;-0.176;2023-02-12T10:28:08;103504.25;;;9.82
29701;BMP280;57917;51.380;-0.176;2023-02-12T10:33:58;103508.97;;;9.93
29701;BMP280;57917;51.380;-0.176;2023-02-12T10:44:32;103519.09;;;9.29
29701;BMP280;57917;51.380;-0.176;2023-02-12T10:50:48;103514.09;;;9.47
29701;BMP280;57917;51.380;-0.176;2023-02-12T10:56:37;103510.28;;;9.63
29701;BMP280;57917;51.380;-0.176;2023-02-12T11:02:28;103503.84;;;9.78
29701;BMP280;57917;51.380;-0.176;2023-02-12T11:15:06;103478.81;;;10.00
29701;BMP280;57917;51.380;-0.176;2023-02-12T11:21:01;103483.59;;;10.25
29701;BMP280;57917;51.380;-0.176;2023-02-12T11:26:49;103476.44;;;10.32
29701;BMP280;57917;51.380;-0.176;2023-02-12T11:32:40;103466.88;;;10.24
29701;BMP280;57917;51.380;-0.176;2023-02-12T11:38:35;103480.06;;;10.05
29701;BMP280;57917;51.380;-0.176;2023-02-12T11:44:33;103478.66;;;10.15
29701;BMP280;57917;51.380;-0.176;2023-02-12T11:50:30;103476.63;;;10.30
29701;BMP280;57917;51.380;-0.176;2023-02-12T11:56:19;103476.84;;;10.55
29701;BMP280;57917;51.380;-0.176;2023-02-12T12:02:33;103462.34;;;10.70
29701;BMP280;57917;51.380;-0.176;2023-02-12T12:08:27;103444.81;;;10.69
29701;BMP280;57917;51.380;-0.176;2023-02-12T12:46:28;103437.09;;;10.61
29701;BMP280;57917;51.380;-0.176;2023-02-12T12:52:49;103417.28;;;10.77
29701;BMP280;57917;51.380;-0.176;2023-02-12T13:36:09;103391.19;;;10.67
29701;BMP280;57917;51.380;-0.176;2023-02-12T13:59:55;103364.91;;;10.79
29701;BMP280;57917;51.380;-0.176;2023-02-12T14:05:43;103366.94;;;10.77
29701;BMP280;57917;51.380;-0.176;2023-02-12T14:11:33;103367.69;;;10.84
29701;BMP280;57917;51.380;-0.176;2023-02-12T14:23:26;103353.50;;;10.72
29701;BMP280;57917;51.380;-0.176;2023-02-12T14:29:18;103358.38;;;10.75
29701;BMP280;57917;51.380;-0.176;2023-02-12T14:35:42;103339.19;;;10.79
29701;BMP280;57917;51.380;-0.176;2023-02-12T14:41:34;103340.00;;;10.80
29701;BMP280;57917;51.380;-0.176;2023-02-12T14:53:26;103344.19;;;10.50
29701;BMP280;57917;51.380;-0.176;2023-02-12T14:59:20;103324.97;;;10.61
29701;BMP280;57917;51.380;-0.176;2023-02-12T15:05:22;103320.13;;;10.64
29701;BMP280;57917;51.380;-0.176;2023-02-12T15:11:19;103308.69;;;10.64
29701;BMP280;57917;51.380;-0.176;2023-02-12T15:17:28;103304.41;;;10.56
29701;BMP280;57917;51.380;-0.176;2023-02-12T15:23:40;103310.16;;;10.47
29701;BMP280;57917;51.380;-0.176;2023-02-12T15:29:49;103303.78;;;10.61
29701;BMP280;57917;51.380;-0.176;2023-02-12T15:35:43;103298.34;;;10.49
29701;BMP280;57917;51.380;-0.176;2023-02-12T15:41:37;103303.41;;;10.57
29701;BMP280;57917;51.380;-0.176;2023-02-12T15:47:24;103298.56;;;10.48
29701;BMP280;57917;51.380;-0.176;2023-02-12T15:53:16;103303.91;;;10.22
29701;BMP280;57917;51.380;-0.176;2023-02-12T15:59:18;103305.75;;;10.15
29701;BMP280;57917;51.380;-0.176;2023-02-12T16:05:22;103298.44;;;9.84
29701;BMP280;57917;51.380;-0.176;2023-02-12T16:11:12;103305.41;;;9.91
29701;BMP280;57917;51.380;-0.176;2023-02-12T16:23:14;103292.38;;;9.70
29701;BMP280;57917;51.380;-0.176;2023-02-12T16:29:15;103290.09;;;9.67
29701;BMP280;57917;51.380;-0.176;2023-02-12T16:56:58;103279.94;;;9.77
29701;BMP280;57917;51.380;-0.176;2023-02-12T17:02:46;103277.06;;;9.92
29701;BMP280;57917;51.380;-0.176;2023-02-12T17:08:34;103289.31;;;9.80
29701;BMP280;57917;51.380;-0.176;2023-02-12T17:14:27;103288.88;;;9.96
29701;BMP280;57917;51.380;-0.176;2023-02-12T17:20:17;103291.34;;;9.98
29701;BMP280;57917;51.380;-0.176;2023-02-12T17:26:04;103292.94;;;10.05
29701;BMP280;57917;51.380;-0.176;2023-02-12T17:31:59;103290.28;;;9.92
29701;BMP280;57917;51.380;-0.176;2023-02-12T17:38:08;103305.56;;;9.96
29701;BMP280;57917;51.380;-0.176;2023-02-12T17:44:05;103312.06;;;10.00
29701;BMP280;57917;51.380;-0.176;2023-02-12T17:49:53;103314.56;;;9.89
29701;BMP280;57917;51.380;-0.176;2023-02-12T17:55:40;103319.03;;;9.82
29701;BMP280;57917;51.380;-0.176;2023-02-12T18:01:27;103316.19;;;9.77
29701;BMP280;57917;51.380;-0.176;2023-02-12T18:07:37;103322.25;;;9.77
29701;BMP280;57917;51.380;-0.176;2023-02-12T18:13:24;103330.44;;;9.82
29701;BMP280;57917;51.380;-0.176;2023-02-12T18:19:15;103326.34;;;9.73
29701;BMP280;57917;51.380;-0.176;2023-02-12T18:25:05;103332.88;;;9.64
29701;BMP280;57917;51.380;-0.176;2023-02-12T18:30:55;103331.63;;;9.73
29701;BMP280;57917;51.380;-0.176;2023-02-12T18:36:58;103327.13;;;9.67
29701;BMP280;57917;51.380;-0.176;2023-02-12T18:42:44;103338.13;;;9.77
29701;BMP280;57917;51.380;-0.176;2023-02-12T18:48:33;103334.78;;;9.23
29701;BMP280;57917;51.380;-0.176;2023-02-12T18:54:21;103337.28;;;9.38
29701;BMP280;57917;51.380;-0.176;2023-02-12T19:00:11;103337.69;;;9.28
29701;BMP280;57917;51.380;-0.176;2023-02-12T19:06:04;103334.41;;;9.33
29701;BMP280;57917;51.380;-0.176;2023-02-12T19:11:54;103337.88;;;9.33
29701;BMP280;57917;51.380;-0.176;2023-02-12T19:17:46;103340.97;;;9.43
29701;BMP280;57917;51.380;-0.176;2023-02-12T19:23:34;103333.22;;;9.29
29701;BMP280;57917;51.380;-0.176;2023-02-12T19:29:23;103325.47;;;9.40
29701;BMP280;57917;51.380;-0.176;2023-02-12T19:35:15;103323.06;;;9.45
29701;BMP280;57917;51.380;-0.176;2023-02-12T19:41:10;103327.53;;;9.58
29701;BMP280;57917;51.380;-0.176;2023-02-12T19:46:59;103327.91;;;9.42
29701;BMP280;57917;51.380;-0.176;2023-02-12T19:52:51;103325.03;;;9.30
29701;BMP280;57917;51.380;-0.176;2023-02-12T19:58:40;103326.72;;;9.44
29701;BMP280;57917;51.380;-0.176;2023-02-12T20:04:29;103331.38;;;9.42
29701;BMP280;57917;51.380;-0.176;2023-02-12T20:10:17;103330.16;;;9.38
29701;BMP280;57917;51.380;-0.176;2023-02-12T20:16:13;103327.91;;;9.48
29701;BMP280;57917;51.380;-0.176;2023-02-12T20:22:08;103313.28;;;9.59
29701;BMP280;57917;51.380;-0.176;2023-02-12T20:27:56;103310.47;;;9.60
29701;BMP280;57917;51.380;-0.176;2023-02-12T20:33:44;103311.47;;;9.46
29701;BMP280;57917;51.380;-0.176;2023-02-12T20:39:33;103300.28;;;9.51
29701;BMP280;57917;51.380;-0.176;2023-02-12T20:45:21;103305.56;;;9.44
29701;BMP280;57917;51.380;-0.176;2023-02-12T20:51:17;103300.66;;;9.28
29701;BMP280;57917;51.380;-0.176;2023-02-12T20:57:07;103299.41;;;9.24
29701;BMP280;57917;51.380;-0.176;2023-02-12T21:02:54;103302.25;;;9.10
29701;BMP280;57917;51.380;-0.176;2023-02-12T21:08:50;103292.41;;;8.91
29701;BMP280;57917;51.380;-0.176;2023-02-12T21:14:52;103298.44;;;8.78
29701;BMP280;57917;51.380;-0.176;2023-02-12T21:20:40;103283.03;;;8.88
29701;BMP280;57917;51.380;-0.176;2023-02-12T21:26:39;103283.19;;;8.73
29701;BMP280;57917;51.380;-0.176;2023-02-12T21:33:05;103284.13;;;8.53
29701;BMP280;57917;51.380;-0.176;2023-02-12T21:39:32;103278.22;;;8.51
29701;BMP280;57917;51.380;-0.176;2023-02-12T21:45:59;103278.13;;;8.72
29701;BMP280;57917;51.380;-0.176;2023-02-12T21:59:48;103269.03;;;8.81
29701;BMP280;57917;51.380;-0.176;2023-02-12T22:13:03;103275.78;;;8.56
29701;BMP280;57917;51.380;-0.176;2023-02-12T22:18:53;103283.56;;;8.30
29701;BMP280;57917;51.380;-0.176;2023-02-12T22:40:15;103275.56;;;8.51
29701;BMP280;57917;51.380;-0.176;2023-02-12T22:46:20;103269.47;;;8.44
29701;BMP280;57917;51.380;-0.176;2023-02-12T22:52:09;103265.75;;;8.38
29701;BMP280;57917;51.380;-0.176;2023-02-12T22:57:56;103272.94;;;8.51
29701;BMP280;57917;51.380;-0.176;2023-02-12T23:03:45;103273.84;;;8.37
29701;BMP280;57917;51.380;-0.176;2023-02-12T23:09:32;103278.75;;;8.40
29701;BMP280;57917;51.380;-0.176;2023-02-12T23:15:19;103274.03;;;8.29
29701;BMP280;57917;51.380;-0.176;2023-02-12T23:21:06;103277.72;;;8.07
29701;BMP280;57917;51.380;-0.176;2023-02-12T23:26:52;103276.47;;;8.03
29701;BMP280;57917;51.380;-0.176;2023-02-12T23:32:39;103283.69;;;7.94
29701;BMP280;57917;51.380;-0.176;2023-02-12T23:38:35;103273.91;;;7.88
29701;BMP280;57917;51.380;-0.176;2023-02-12T23:44:58;103281.75;;;8.03
29701;BMP280;57917;51.380;-0.176;2023-02-12T23:50:45;103282.16;;;8.00
29701;BMP280;57917;51.380;-0.176;2023-02-12T23:56:35;103269.13;;;7.92
